»·PEaware :: N572B KPDX-KEUG

N572B :: KPDX-KEUG

FLIGHT INFORMATION

Flight Status: Arrived
Operator: Privately registered:
United States
More flights under this callsign
Pilot: Anonymous 8799 (8799)
Aircraft: CESSNA 340
(C340)
More flights by this aircraft type
Origin: KPDX Portland Intl
United States
Destination: KEUG Mahlon Sweet
United States
More flights between these airports :: More routes between these airports
Route: +PTLD1 BTG V23 EUG
File this flight plan on PilotEdge
Remarks:
Altitude:
(Current/Filed)
6,000ft
Speed:
(Current/Filed)
160kts
Departed: 10-Nov-18 11:18 AM
Arrived: 10-Nov-18 11:58 AM
Distance/Time
Traveled:
92nm/0:40
Distance/Time
To Go:
Arrived

Flight Plot

Page will automatically refresh every two minutes.

Flight plan parsing failed; only flown route is shown


Map Options




Map Legend


Flown Route
Filed Route
Departure Airport
Arrival Airport
Navaid (VOR, NDB)
Fix

Horizontal Profiles

Position Reports

Time Latitude Longitude Heading Altitude Ground
Speed
10-Nov-18 11:07 45.582091 -122.580099 28 33ft 0kts
10-Nov-18 11:08 45.582091 -122.580099 28 33ft 0kts
10-Nov-18 11:09 45.582091 -122.580099 28 33ft 0kts
10-Nov-18 11:10 45.582091 -122.580099 28 33ft 0kts
10-Nov-18 11:11 45.582091 -122.580099 28 33ft 0kts
10-Nov-18 11:12 45.582091 -122.580099 28 33ft 0kts
10-Nov-18 11:13 45.582091 -122.580099 28 33ft 0kts
10-Nov-18 11:14 45.582077 -122.580336 192 33ft 0kts
10-Nov-18 11:15 45.582077 -122.580336 192 33ft 0kts
10-Nov-18 11:16 45.582077 -122.580336 192 33ft 0kts
10-Nov-18 11:17 45.581999 -122.582103 269 33ft 3kts
10-Nov-18 11:18 45.581426 -122.583370 209 33ft 0kts
10-Nov-18 11:19 45.581426 -122.583370 209 33ft 0kts
10-Nov-18 11:20 45.580834 -122.584683 297 33ft 7kts
10-Nov-18 11:21 45.589357 -122.606778 300 142ft 112kts
10-Nov-18 11:22 45.602617 -122.640878 302 908ft 114kts
10-Nov-18 11:23 45.619639 -122.678144 287 1669ft 135kts
10-Nov-18 11:24 45.637858 -122.722577 305 2534ft 129kts
10-Nov-18 11:25 45.658209 -122.764926 305 3362ft 130kts
10-Nov-18 11:26 45.678466 -122.807672 305 4185ft 129kts
10-Nov-18 11:27 45.698090 -122.852145 284 5035ft 141kts
10-Nov-18 11:28 45.667872 -122.869267 156 6015ft 156kts
10-Nov-18 11:29 45.626602 -122.847171 165 6659ft 183kts
10-Nov-18 11:30 45.572892 -122.830252 165 6220ft 212kts
10-Nov-18 11:31 45.516549 -122.812204 165 6039ft 206kts
10-Nov-18 11:32 45.462023 -122.794823 165 6044ft 203kts
10-Nov-18 11:33 45.407314 -122.777615 165 6045ft 201kts
10-Nov-18 11:34 45.353518 -122.761216 165 6047ft 196kts
10-Nov-18 11:35 45.300727 -122.763029 195 6048ft 197kts
10-Nov-18 11:36 45.247813 -122.785110 194 5997ft 197kts
10-Nov-18 11:37 45.195143 -122.806048 194 5998ft 196kts
10-Nov-18 11:38 45.142625 -122.826807 194 5998ft 196kts
10-Nov-18 11:39 45.089978 -122.847539 194 5996ft 197kts
10-Nov-18 11:40 45.037068 -122.868319 195 5991ft 198kts
10-Nov-18 11:41 44.983708 -122.889256 196 5984ft 199kts
10-Nov-18 11:42 44.930081 -122.910338 196 5981ft 200kts
10-Nov-18 11:43 44.879548 -122.930161 196 5977ft 198kts
10-Nov-18 11:44 44.826411 -122.950918 196 5978ft 198kts
10-Nov-18 11:45 44.773215 -122.971681 196 5978ft 199kts
10-Nov-18 11:46 44.719945 -122.992415 196 5978ft 199kts
10-Nov-18 11:47 44.666375 -123.013185 196 5978ft 199kts
10-Nov-18 11:48 44.613587 -123.033553 196 5977ft 194kts
10-Nov-18 11:49 44.562032 -123.053321 196 5979ft 191kts
10-Nov-18 11:50 44.519377 -123.099944 225 5416ft 200kts
10-Nov-18 11:51 44.480130 -123.151734 225 4705ft 189kts
10-Nov-18 11:52 44.442831 -123.201033 216 4001ft 179kts
10-Nov-18 11:53 44.398077 -123.222980 180 3423ft 172kts
10-Nov-18 11:54 44.351040 -123.222479 179 2717ft 165kts
10-Nov-18 11:55 44.306252 -123.221769 179 2019ft 157kts
10-Nov-18 11:56 44.267456 -123.221117 179 1965ft 124kts
10-Nov-18 11:57 44.234101 -123.220613 179 1979ft 125kts
10-Nov-18 11:58 44.197556 -123.220121 179 1632ft 142kts
10-Nov-18 11:59 44.161048 -123.219522 179 909ft 106kts
10-Nov-18 12:00 44.134987 -123.219071 178 415ft 92kts
10-Nov-18 12:01 44.120095 -123.217513 130 378ft 9kts
10-Nov-18 12:02 44.117895 -123.215267 215 378ft 0kts
10-Nov-18 12:03 44.117895 -123.215267 216 378ft 0kts
10-Nov-18 12:04 44.117895 -123.215267 216 378ft 0kts
10-Nov-18 12:05 44.117895 -123.215267 216 378ft 0kts
10-Nov-18 12:06 44.117895 -123.215267 216 378ft 0kts
10-Nov-18 12:07 44.117895 -123.215267 216 378ft 0kts
10-Nov-18 12:08 44.117895 -123.215267 216 378ft 0kts
10-Nov-18 12:09 44.117895 -123.215267 216 378ft 0kts
10-Nov-18 12:10 44.117895 -123.215267 216 378ft 0kts
10-Nov-18 12:11 44.117895 -123.215267 216 378ft 0kts
10-Nov-18 12:12 44.117895 -123.215267 216 378ft 0kts
10-Nov-18 12:13 44.117895 -123.215267 216 378ft 0kts
10-Nov-18 12:14 44.117895 -123.215267 216 378ft 0kts
10-Nov-18 12:15 44.117895 -123.215267 216 378ft 0kts
10-Nov-18 12:16 44.117895 -123.215267 216 378ft 0kts

Navigation Log

Ident Type
Flight plan parsing failed, navigation log unavailable